This is the latest recevied weather packets stored in our database for station/object WJ9H. If no packets are shown the sender has not sent any weather packets the latest 10 day(s).
| Time | Temp. | Humidity | Pressure | Rain* | Wind** | Luminosity | Snow |
|---|---|---|---|---|---|---|---|
| 1777950580 | 12.78° C | - | 1002.8 hPa | 0 mm | - | - | - |
| 1777950361 | 12.78° C | - | 1002.4 hPa | 0 mm | - | - | - |
| 1777949978 | 12.78° C | - | 1002.4 hPa | 0 mm | - | - | - |
| 1777949687 | 12.78° C | - | 1002.4 hPa | 0 mm | - | - | - |
| 1777949672 | 12.78° C | - | 1002.8 hPa | 0 mm | - | - | - |
| 1777948889 | 13.33° C | - | 1002.1 hPa | 0 mm | - | - | - |
| 1777948782 | 13.33° C | - | 1002.1 hPa | 0 mm | - | - | - |
| 1777948600 | 13.33° C | - | 1002.1 hPa | 0 mm | - | - | - |
| 1777948489 | 12.78° C | - | 1002.1 hPa | 0 mm | - | - | - |
| 1777948177 | 13.33° C | - | 1002.1 hPa | 0 mm | - | - | - |
| 1777947945 | 13.33° C | - | 1001.7 hPa | 0 mm | - | - | - |
| 1777947575 | 13.33° C | - | 1001.7 hPa | 0 mm | - | - | - |
| 1777947385 | 13.89° C | - | 1001.4 hPa | 0 mm | - | - | - |
| 1777947288 | 13.33° C | - | 1001.7 hPa | 0 mm | - | - | - |
| 1777946979 | 13.89° C | - | 1001.4 hPa | 0 mm | - | - | - |
| 1777946785 | 13.89° C | - | 1001.4 hPa | 0 mm | - | - | - |
| 1777946184 | 14.44° C | - | 1001.1 hPa | 0 mm | - | - | - |
| 1777946088 | 13.89° C | - | 1001.4 hPa | 0 mm | - | - | - |
| 1777945778 | 14.44° C | - | 1001.1 hPa | 0 mm | - | - | - |
| 1777945559 | 14.44° C | - | 1000.7 hPa | 0 mm | - | - | - |
| 1777945179 | 14.44° C | - | 1000.7 hPa | 0 mm | - | - | - |
| 1777945035 | 14.44° C | - | 1000.7 hPa | 0 mm | - | - | - |
| 1777944888 | 14.44° C | - | 1000.7 hPa | 0 mm | - | - | - |
| 1777944578 | 14.44° C | - | 1000.7 hPa | 0 mm | - | - | - |
| 1777943833 | 15.56° C | - | 1000.4 hPa | 0 mm | - | - | - |
* Rain latest hour (hover to see other rain measurements)
** Current wind speed in m/s (hover to see current wind gust speed)